MAS1166 WMKK-WMKP
Flight info
| Callsign | MAS1166 |
|---|---|
| Flight time | 0h 36m |
| Altitude | 28000 |
| Route | ATIMU Y506 TEPUS DCT GORVU |
| Aircraft | B738/M-SDE2E3FGHIRWXY/LB1 |
Departure
| Time | 2026-04-26 15:38 |
|---|---|
| Airport | Kuala Lumpur International Airport (WMKK) |
Arrival
| Time | 2026-04-26 16:14 |
|---|---|
| Airport | Penang International Airport (WMKP) |
| Time | Latitude | Longitude | Altitude | Speed | Heading |
|---|---|---|---|---|---|
| 2026-04-26 15:08 | 2.75333 | 101.70737 | 72 ft | 0 kts | 310° |
| 2026-04-26 15:28 | 2.75322 | 101.70748 | 67 ft | 4 kts | 324° |
| 2026-04-26 15:28 | 2.75304 | 101.70760 | 62 ft | 3 kts | 326° |
| 2026-04-26 15:28 | 2.75282 | 101.70775 | 63 ft | 4 kts | 321° |
| 2026-04-26 15:28 | 2.75267 | 101.70793 | 62 ft | 4 kts | 270° |
| 2026-04-26 15:29 | 2.75276 | 101.70812 | 67 ft | 3 kts | 237° |
| 2026-04-26 15:29 | 2.75278 | 101.70816 | 67 ft | 0 kts | 237° |
| 2026-04-26 15:32 | 2.75275 | 101.70811 | 67 ft | 2 kts | 237° |
| 2026-04-26 15:32 | 2.75258 | 101.70785 | 62 ft | 6 kts | 237° |
| 2026-04-26 15:33 | 2.75231 | 101.70744 | 68 ft | 8 kts | 234° |
| 2026-04-26 15:33 | 2.75179 | 101.70721 | 72 ft | 9 kts | 171° |
| 2026-04-26 15:33 | 2.75124 | 101.70754 | 69 ft | 10 kts | 146° |
| 2026-04-26 15:33 | 2.75069 | 101.70801 | 67 ft | 11 kts | 111° |
| 2026-04-26 15:34 | 2.75101 | 101.70869 | 66 ft | 12 kts | 56° |
| 2026-04-26 15:34 | 2.75148 | 101.70938 | 72 ft | 13 kts | 55° |
| 2026-04-26 15:34 | 2.75201 | 101.71015 | 72 ft | 14 kts | 55° |
| 2026-04-26 15:34 | 2.75258 | 101.71098 | 68 ft | 15 kts | 55° |
| 2026-04-26 15:35 | 2.75318 | 101.71187 | 67 ft | 16 kts | 56° |
| 2026-04-26 15:35 | 2.75382 | 101.71282 | 69 ft | 17 kts | 56° |
| 2026-04-26 15:35 | 2.75450 | 101.71381 | 70 ft | 18 kts | 55° |
| 2026-04-26 15:35 | 2.75521 | 101.71484 | 72 ft | 18 kts | 56° |
| 2026-04-26 15:36 | 2.75579 | 101.71571 | 74 ft | 12 kts | 56° |
| 2026-04-26 15:36 | 2.75607 | 101.71612 | 67 ft | 8 kts | 56° |
| 2026-04-26 15:36 | 2.75647 | 101.71653 | 73 ft | 8 kts | 21° |
| 2026-04-26 15:36 | 2.75677 | 101.71644 | 72 ft | 5 kts | 327° |
| 2026-04-26 15:37 | 2.75696 | 101.71631 | 65 ft | 8 kts | 325° |
| 2026-04-26 15:37 | 2.75934 | 101.71471 | 73 ft | 77 kts | 326° |
| 2026-04-26 15:37 | 2.76570 | 101.71044 | 65 ft | 139 kts | 326° |
| 2026-04-26 15:37 | 2.77473 | 101.70458 | 359 ft | 160 kts | 327° |
| 2026-04-26 15:38 | 2.78426 | 101.69839 | 884 ft | 170 kts | 329° |
| 2026-04-26 15:38 | 2.79460 | 101.69162 | 1376 ft | 186 kts | 327° |
| 2026-04-26 15:38 | 2.80712 | 101.68558 | 1673 ft | 218 kts | 345° |
| 2026-04-26 15:38 | 2.82235 | 101.68061 | 1955 ft | 239 kts | 343° |
| 2026-04-26 15:39 | 2.83831 | 101.67513 | 2507 ft | 244 kts | 343° |
| 2026-04-26 15:39 | 2.85439 | 101.66944 | 3182 ft | 245 kts | 342° |
| 2026-04-26 15:39 | 2.87105 | 101.66350 | 3590 ft | 262 kts | 342° |
| 2026-04-26 15:39 | 2.88266 | 101.65933 | 3992 ft | 269 kts | 342° |
| 2026-04-26 15:40 | 2.90613 | 101.65085 | 5184 ft | 271 kts | 342° |
| 2026-04-26 15:40 | 2.92406 | 101.64447 | 6013 ft | 276 kts | 342° |
| 2026-04-26 15:40 | 2.94236 | 101.63819 | 6774 ft | 281 kts | 343° |
| 2026-04-26 15:40 | 2.96032 | 101.63006 | 7518 ft | 288 kts | 324° |
| 2026-04-26 15:41 | 2.97436 | 101.61554 | 8321 ft | 293 kts | 309° |
| 2026-04-26 15:41 | 2.98653 | 101.59922 | 9077 ft | 298 kts | 307° |
| 2026-04-26 15:41 | 2.99873 | 101.58219 | 9832 ft | 303 kts | 307° |
| 2026-04-26 15:41 | 3.01111 | 101.56487 | 10409 ft | 314 kts | 307° |
| 2026-04-26 15:42 | 3.02437 | 101.54644 | 10655 ft | 335 kts | 307° |
| 2026-04-26 15:42 | 3.03825 | 101.52730 | 11207 ft | 343 kts | 307° |
| 2026-04-26 15:42 | 3.05238 | 101.50789 | 11916 ft | 347 kts | 307° |
| 2026-04-26 15:42 | 3.06670 | 101.48830 | 12648 ft | 350 kts | 307° |
| 2026-04-26 15:43 | 3.08118 | 101.46852 | 13349 ft | 355 kts | 307° |
| 2026-04-26 15:43 | 3.09590 | 101.44843 | 14018 ft | 359 kts | 307° |
| 2026-04-26 15:43 | 3.12563 | 101.40788 | 15326 ft | 367 kts | 307° |
| 2026-04-26 15:44 | 3.14085 | 101.38713 | 15985 ft | 371 kts | 308° |
| 2026-04-26 15:44 | 3.17385 | 101.34673 | 17260 ft | 377 kts | 322° |
| 2026-04-26 15:44 | 3.19481 | 101.33075 | 17917 ft | 380 kts | 326° |
| 2026-04-26 15:45 | 3.23825 | 101.29972 | 19035 ft | 387 kts | 327° |
| 2026-04-26 15:45 | 3.25996 | 101.28420 | 19616 ft | 389 kts | 326° |
| 2026-04-26 15:46 | 3.30420 | 101.25210 | 20738 ft | 395 kts | 326° |
| 2026-04-26 15:46 | 3.32648 | 101.23577 | 21280 ft | 398 kts | 326° |
| 2026-04-26 15:46 | 3.34891 | 101.21928 | 21823 ft | 401 kts | 326° |
| 2026-04-26 15:46 | 3.36384 | 101.20828 | 22176 ft | 403 kts | 326° |
| 2026-04-26 15:47 | 3.39419 | 101.18591 | 23001 ft | 404 kts | 326° |
| 2026-04-26 15:47 | 3.43893 | 101.15289 | 24295 ft | 398 kts | 326° |
| 2026-04-26 15:47 | 3.46120 | 101.13647 | 24875 ft | 397 kts | 326° |
| 2026-04-26 15:48 | 3.48346 | 101.12006 | 25450 ft | 396 kts | 326° |
| 2026-04-26 15:48 | 3.50575 | 101.10363 | 25826 ft | 398 kts | 326° |
| 2026-04-26 15:48 | 3.52774 | 101.08742 | 25844 ft | 394 kts | 326° |
| 2026-04-26 15:48 | 3.54984 | 101.07111 | 25870 ft | 394 kts | 326° |
| 2026-04-26 15:49 | 3.57203 | 101.05475 | 25874 ft | 396 kts | 326° |
| 2026-04-26 15:49 | 3.59425 | 101.03837 | 25875 ft | 397 kts | 326° |
| 2026-04-26 15:49 | 3.61622 | 101.02216 | 25870 ft | 397 kts | 326° |
| 2026-04-26 15:49 | 3.63854 | 101.00570 | 25867 ft | 398 kts | 326° |
| 2026-04-26 15:50 | 3.66091 | 100.98920 | 25864 ft | 398 kts | 326° |
| 2026-04-26 15:50 | 3.68403 | 100.97420 | 25863 ft | 395 kts | 335° |
| 2026-04-26 15:50 | 3.70869 | 100.96258 | 25858 ft | 386 kts | 339° |
| 2026-04-26 15:50 | 3.73291 | 100.95218 | 25861 ft | 381 kts | 339° |
| 2026-04-26 15:51 | 3.75735 | 100.94188 | 25858 ft | 381 kts | 339° |
| 2026-04-26 15:51 | 3.78196 | 100.93142 | 25867 ft | 382 kts | 339° |
| 2026-04-26 15:51 | 3.80617 | 100.92096 | 25622 ft | 384 kts | 339° |
| 2026-04-26 15:51 | 3.83050 | 100.91030 | 25331 ft | 379 kts | 339° |
| 2026-04-26 15:52 | 3.85459 | 100.89964 | 24967 ft | 378 kts | 338° |
| 2026-04-26 15:52 | 3.87864 | 100.88895 | 24606 ft | 375 kts | 338° |
| 2026-04-26 15:52 | 3.90248 | 100.87833 | 24210 ft | 374 kts | 338° |
| 2026-04-26 15:52 | 3.91825 | 100.87130 | 23954 ft | 373 kts | 338° |
| 2026-04-26 15:53 | 3.94966 | 100.85729 | 23440 ft | 373 kts | 338° |
| 2026-04-26 15:53 | 3.97331 | 100.84674 | 22996 ft | 371 kts | 338° |
| 2026-04-26 15:53 | 3.99692 | 100.83621 | 22592 ft | 369 kts | 338° |
| 2026-04-26 15:53 | 4.02034 | 100.82577 | 22201 ft | 366 kts | 338° |
| 2026-04-26 15:54 | 4.04360 | 100.81539 | 21807 ft | 364 kts | 338° |
| 2026-04-26 15:54 | 4.06670 | 100.80509 | 21442 ft | 361 kts | 338° |
| 2026-04-26 15:54 | 4.08929 | 100.79501 | 21079 ft | 359 kts | 338° |
| 2026-04-26 15:54 | 4.11210 | 100.78483 | 20706 ft | 357 kts | 339° |
| 2026-04-26 15:55 | 4.13481 | 100.77471 | 20338 ft | 355 kts | 339° |
| 2026-04-26 15:55 | 4.15743 | 100.76462 | 19970 ft | 354 kts | 339° |
| 2026-04-26 15:55 | 4.17962 | 100.75475 | 19573 ft | 353 kts | 339° |
| 2026-04-26 15:55 | 4.20218 | 100.74489 | 19159 ft | 353 kts | 339° |
| 2026-04-26 15:56 | 4.22482 | 100.73505 | 18784 ft | 352 kts | 339° |
| 2026-04-26 15:56 | 4.24735 | 100.72527 | 18421 ft | 351 kts | 339° |
| 2026-04-26 15:56 | 4.26952 | 100.71565 | 18042 ft | 350 kts | 339° |
| 2026-04-26 15:56 | 4.29183 | 100.70595 | 17638 ft | 348 kts | 339° |
| 2026-04-26 15:57 | 4.31408 | 100.69628 | 17261 ft | 346 kts | 339° |
| 2026-04-26 15:57 | 4.33591 | 100.68677 | 16898 ft | 343 kts | 339° |
| 2026-04-26 15:57 | 4.35781 | 100.67723 | 16537 ft | 341 kts | 339° |
| 2026-04-26 15:57 | 4.37219 | 100.67097 | 16307 ft | 340 kts | 339° |
| 2026-04-26 15:58 | 4.40109 | 100.65838 | 15830 ft | 337 kts | 339° |
| 2026-04-26 15:58 | 4.42250 | 100.64906 | 15479 ft | 335 kts | 339° |
| 2026-04-26 15:58 | 4.44384 | 100.63976 | 15131 ft | 333 kts | 339° |
| 2026-04-26 15:58 | 4.46504 | 100.63052 | 14778 ft | 332 kts | 339° |
| 2026-04-26 15:59 | 4.48623 | 100.62129 | 14426 ft | 330 kts | 339° |
| 2026-04-26 15:59 | 4.50727 | 100.61212 | 14070 ft | 329 kts | 339° |
| 2026-04-26 15:59 | 4.52807 | 100.60306 | 13720 ft | 329 kts | 338° |
| 2026-04-26 15:59 | 4.54902 | 100.59393 | 13344 ft | 327 kts | 338° |
| 2026-04-26 16:00 | 4.56990 | 100.58483 | 12972 ft | 325 kts | 338° |
| 2026-04-26 16:00 | 4.59060 | 100.57580 | 12635 ft | 323 kts | 338° |
| 2026-04-26 16:00 | 4.61116 | 100.56684 | 12272 ft | 321 kts | 338° |
| 2026-04-26 16:00 | 4.63138 | 100.55803 | 11935 ft | 319 kts | 338° |
| 2026-04-26 16:01 | 4.65169 | 100.54917 | 11604 ft | 317 kts | 338° |
| 2026-04-26 16:01 | 4.67178 | 100.54041 | 11355 ft | 312 kts | 338° |
| 2026-04-26 16:01 | 4.69167 | 100.53173 | 11038 ft | 310 kts | 338° |
| 2026-04-26 16:01 | 4.71117 | 100.52323 | 10723 ft | 308 kts | 338° |
| 2026-04-26 16:02 | 4.73087 | 100.51464 | 10396 ft | 307 kts | 338° |
| 2026-04-26 16:02 | 4.75035 | 100.50614 | 10187 ft | 301 kts | 338° |
| 2026-04-26 16:02 | 4.76937 | 100.49784 | 10028 ft | 294 kts | 338° |
| 2026-04-26 16:02 | 4.78179 | 100.49242 | 9839 ft | 293 kts | 338° |
| 2026-04-26 16:03 | 4.80655 | 100.48163 | 9431 ft | 291 kts | 338° |
| 2026-04-26 16:03 | 4.82440 | 100.47205 | 9099 ft | 292 kts | 321° |
| 2026-04-26 16:03 | 4.83777 | 100.45687 | 8828 ft | 289 kts | 308° |
| 2026-04-26 16:03 | 4.84987 | 100.44076 | 8527 ft | 288 kts | 307° |
| 2026-04-26 16:04 | 4.86188 | 100.42467 | 8222 ft | 287 kts | 308° |
| 2026-04-26 16:04 | 4.87373 | 100.40892 | 7933 ft | 286 kts | 308° |
| 2026-04-26 16:04 | 4.88572 | 100.39309 | 7641 ft | 285 kts | 308° |
| 2026-04-26 16:04 | 4.89771 | 100.37733 | 7356 ft | 283 kts | 308° |
| 2026-04-26 16:05 | 4.90969 | 100.36161 | 7054 ft | 283 kts | 308° |
| 2026-04-26 16:05 | 4.92158 | 100.34601 | 6812 ft | 280 kts | 308° |
| 2026-04-26 16:05 | 4.93334 | 100.33056 | 6578 ft | 277 kts | 308° |
| 2026-04-26 16:05 | 4.94501 | 100.31524 | 6341 ft | 275 kts | 308° |
| 2026-04-26 16:06 | 4.95658 | 100.30004 | 6111 ft | 274 kts | 308° |
| 2026-04-26 16:06 | 4.96802 | 100.28501 | 5875 ft | 274 kts | 308° |
| 2026-04-26 16:06 | 4.97961 | 100.26978 | 5640 ft | 274 kts | 308° |
| 2026-04-26 16:06 | 4.99120 | 100.25456 | 5410 ft | 273 kts | 308° |
| 2026-04-26 16:07 | 5.00254 | 100.23966 | 5172 ft | 272 kts | 308° |
| 2026-04-26 16:07 | 5.01386 | 100.22479 | 4968 ft | 271 kts | 308° |
| 2026-04-26 16:07 | 5.02528 | 100.20979 | 4743 ft | 269 kts | 308° |
| 2026-04-26 16:07 | 5.03683 | 100.19499 | 4506 ft | 268 kts | 314° |
| 2026-04-26 16:08 | 5.04642 | 100.18728 | 4331 ft | 266 kts | 331° |
| 2026-04-26 16:08 | 5.06277 | 100.17887 | 4137 ft | 262 kts | 334° |
| 2026-04-26 16:08 | 5.08413 | 100.16791 | 3828 ft | 258 kts | 333° |
| 2026-04-26 16:08 | 5.09997 | 100.15966 | 3623 ft | 254 kts | 333° |
| 2026-04-26 16:09 | 5.11032 | 100.15425 | 3478 ft | 251 kts | 333° |
| 2026-04-26 16:09 | 5.13079 | 100.14376 | 3210 ft | 247 kts | 340° |
| 2026-04-26 16:09 | 5.14205 | 100.14165 | 3046 ft | 243 kts | 5° |
| 2026-04-26 16:09 | 5.16115 | 100.15134 | 2805 ft | 233 kts | 47° |
| 2026-04-26 16:10 | 5.16843 | 100.15921 | 2713 ft | 230 kts | 45° |
| 2026-04-26 16:10 | 5.18375 | 100.17360 | 2520 ft | 223 kts | 42° |
| 2026-04-26 16:10 | 5.19146 | 100.18057 | 2402 ft | 220 kts | 42° |
| 2026-04-26 16:10 | 5.20262 | 100.19069 | 2147 ft | 217 kts | 42° |
| 2026-04-26 16:11 | 5.21374 | 100.20084 | 1868 ft | 214 kts | 42° |
| 2026-04-26 16:11 | 5.22470 | 100.21084 | 1596 ft | 212 kts | 42° |
| 2026-04-26 16:11 | 5.23554 | 100.22073 | 1313 ft | 208 kts | 42° |
| 2026-04-26 16:11 | 5.24601 | 100.23028 | 1042 ft | 197 kts | 42° |
| 2026-04-26 16:12 | 5.25521 | 100.23867 | 846 ft | 183 kts | 42° |
| 2026-04-26 16:12 | 5.26406 | 100.24674 | 634 ft | 163 kts | 42° |
| 2026-04-26 16:12 | 5.27914 | 100.26044 | 239 ft | 138 kts | 42° |
| 2026-04-26 16:13 | 5.28622 | 100.26693 | 88 ft | 138 kts | 42° |
| 2026-04-26 16:13 | 5.29301 | 100.27309 | 26 ft | 122 kts | 42° |
| 2026-04-26 16:13 | 5.29840 | 100.27799 | 26 ft | 87 kts | 42° |
| 2026-04-26 16:13 | 5.30176 | 100.28103 | 24 ft | 53 kts | 42° |
| 2026-04-26 16:14 | 5.30443 | 100.28346 | 22 ft | 51 kts | 42° |
| 2026-04-26 16:14 | 5.30696 | 100.28575 | 24 ft | 46 kts | 42° |
| 2026-04-26 16:14 | 5.30904 | 100.28594 | 22 ft | 17 kts | 285° |
| 2026-04-26 16:15 | 5.30856 | 100.28493 | 22 ft | 17 kts | 224° |
| 2026-04-26 16:15 | 5.30773 | 100.28415 | 22 ft | 16 kts | 222° |
| 2026-04-26 16:15 | 5.30693 | 100.28342 | 23 ft | 15 kts | 222° |
| 2026-04-26 16:16 | 5.30541 | 100.28204 | 22 ft | 14 kts | 222° |
| 2026-04-26 16:16 | 5.30470 | 100.28139 | 22 ft | 13 kts | 222° |
| 2026-04-26 16:16 | 5.30402 | 100.28077 | 22 ft | 13 kts | 222° |
| 2026-04-26 16:16 | 5.30337 | 100.28015 | 22 ft | 13 kts | 224° |
| 2026-04-26 16:17 | 5.30269 | 100.27946 | 22 ft | 15 kts | 225° |
| 2026-04-26 16:17 | 5.30190 | 100.27866 | 22 ft | 17 kts | 224° |
| 2026-04-26 16:17 | 5.30099 | 100.27778 | 22 ft | 19 kts | 224° |
| 2026-04-26 16:17 | 5.30000 | 100.27683 | 22 ft | 21 kts | 223° |
| 2026-04-26 16:18 | 5.29889 | 100.27581 | 22 ft | 22 kts | 222° |
| 2026-04-26 16:18 | 5.29644 | 100.27358 | 22 ft | 25 kts | 222° |
| 2026-04-26 16:19 | 5.29392 | 100.27132 | 22 ft | 20 kts | 221° |
| 2026-04-26 16:19 | 5.29298 | 100.27044 | 22 ft | 11 kts | 222° |
| 2026-04-26 16:19 | 5.29185 | 100.26922 | 22 ft | 12 kts | 267° |
| 2026-04-26 16:20 | 5.29201 | 100.26894 | 22 ft | 5 kts | 310° |
| 2026-04-26 16:20 | 5.29263 | 100.26810 | 22 ft | 9 kts | 274° |
| 2026-04-26 16:20 | 5.29222 | 100.26757 | 22 ft | 11 kts | 222° |
| 2026-04-26 16:21 | 5.29162 | 100.26705 | 22 ft | 9 kts | 220° |
| 2026-04-26 16:21 | 5.29164 | 100.26659 | 24 ft | 7 kts | 313° |
| 2026-04-26 16:21 | 5.29187 | 100.26633 | 22 ft | 2 kts | 311° |
| 2026-04-26 16:21 | 5.29195 | 100.26624 | 24 ft | 0 kts | 311° |